UAE161 OMDB-EIDW
Flight info
| Callsign | UAE161 |
|---|---|
| Flight time | N/A |
| Altitude | 34000 |
| Route | RIDAP M557 TUMAK L602 GADSI M860 SEPTU DCT VUSEB M860 NINVA UM860 ODALI UL852 NEGEM DCT MAXOV DCT NARKA DCT DEMOP DCT ROMIS DCT LALUK DCT ZUCKA DCT PIROT DCT RAVLO Y70 OTBED L60 PENIL UL28 LELDO M145 BAGSO BAGSO3R |
| Aircraft | B77W/H-SDE1E2E3FGHIJ2J3J4J5M1RWXY/LB1D1 |
Departure
| Time | 2026-04-21 20:04 |
|---|---|
| Airport | Dubai International Airport (OMDB) |
Arrival
| Time | N/A |
|---|---|
| Airport | Dublin Airport (EIDW) |
| Time | Latitude | Longitude | Altitude | Speed | Heading |
|---|---|---|---|---|---|
| 2026-04-21 19:42 | 25.24136 | 55.37562 | 26 ft | 0 kts | 301° |
| 2026-04-21 19:56 | 25.24123 | 55.37586 | 32 ft | 4 kts | 301° |
| 2026-04-21 19:57 | 25.24114 | 55.37603 | 32 ft | 4 kts | 302° |
| 2026-04-21 19:57 | 25.24099 | 55.37624 | 31 ft | 4 kts | 321° |
| 2026-04-21 19:57 | 25.24080 | 55.37637 | 31 ft | 4 kts | 354° |
| 2026-04-21 19:57 | 25.24062 | 55.37634 | 31 ft | 2 kts | 31° |
| 2026-04-21 19:58 | 25.24043 | 55.37622 | 31 ft | 4 kts | 31° |
| 2026-04-21 19:58 | 25.24031 | 55.37614 | 31 ft | 0 kts | 31° |
| 2026-04-21 20:00 | 25.24050 | 55.37626 | 31 ft | 10 kts | 31° |
| 2026-04-21 20:00 | 25.24111 | 55.37667 | 33 ft | 12 kts | 31° |
| 2026-04-21 20:01 | 25.24242 | 55.37756 | 27 ft | 28 kts | 31° |
| 2026-04-21 20:01 | 25.24403 | 55.37870 | 31 ft | 25 kts | 34° |
| 2026-04-21 20:01 | 25.24546 | 55.37978 | 32 ft | 26 kts | 34° |
| 2026-04-21 20:01 | 25.24634 | 55.38042 | 30 ft | 9 kts | 32° |
| 2026-04-21 20:02 | 25.24646 | 55.38051 | 30 ft | 0 kts | 32° |
| 2026-04-21 20:02 | 25.24663 | 55.38062 | 32 ft | 11 kts | 31° |
| 2026-04-21 20:03 | 25.24770 | 55.38082 | 35 ft | 18 kts | 324° |
| 2026-04-21 20:03 | 25.24799 | 55.38040 | 35 ft | 0 kts | 302° |
| 2026-04-21 20:03 | 25.24823 | 55.37997 | 34 ft | 24 kts | 301° |
| 2026-04-21 20:04 | 25.25054 | 55.37582 | 36 ft | 101 kts | 301° |
| 2026-04-21 20:04 | 25.25542 | 55.36701 | 34 ft | 166 kts | 301° |
| 2026-04-21 20:04 | 25.26201 | 55.35511 | 354 ft | 185 kts | 302° |
| 2026-04-21 20:04 | 25.26888 | 55.34284 | 949 ft | 190 kts | 303° |
| 2026-04-21 20:05 | 25.27601 | 55.33025 | 1471 ft | 198 kts | 304° |
| 2026-04-21 20:05 | 25.28335 | 55.31715 | 2031 ft | 201 kts | 303° |
| 2026-04-21 20:05 | 25.29065 | 55.30394 | 2634 ft | 201 kts | 303° |
| 2026-04-21 20:05 | 25.29824 | 55.29029 | 2957 ft | 220 kts | 304° |
| 2026-04-21 20:06 | 25.30740 | 55.27569 | 3230 ft | 245 kts | 307° |
| 2026-04-21 20:06 | 25.31785 | 55.25945 | 4062 ft | 266 kts | 306° |
| 2026-04-21 20:06 | 25.32867 | 55.24257 | 5355 ft | 274 kts | 304° |
| 2026-04-21 20:06 | 25.33998 | 55.22484 | 6307 ft | 293 kts | 304° |
| 2026-04-21 20:07 | 25.35203 | 55.20542 | 6889 ft | 318 kts | 298° |
| 2026-04-21 20:07 | 25.35927 | 55.18123 | 7008 ft | 349 kts | 273° |
| 2026-04-21 20:07 | 25.35841 | 55.15413 | 7518 ft | 358 kts | 265° |
| 2026-04-21 20:07 | 25.35682 | 55.12670 | 8855 ft | 356 kts | 265° |
| 2026-04-21 20:08 | 25.35552 | 55.09943 | 10177 ft | 356 kts | 266° |
| 2026-04-21 20:08 | 25.35436 | 55.07193 | 11284 ft | 361 kts | 266° |
| 2026-04-21 20:08 | 25.35329 | 55.04401 | 12326 ft | 367 kts | 266° |
| 2026-04-21 20:08 | 25.35224 | 55.01562 | 13441 ft | 372 kts | 266° |
| 2026-04-21 20:09 | 25.35120 | 54.98687 | 14375 ft | 377 kts | 267° |
| 2026-04-21 20:09 | 25.35014 | 54.95779 | 14809 ft | 380 kts | 267° |
| 2026-04-21 20:09 | 25.34908 | 54.92885 | 14794 ft | 382 kts | 267° |
| 2026-04-21 20:09 | 25.35013 | 54.89925 | 14792 ft | 380 kts | 280° |
| 2026-04-21 20:10 | 25.35797 | 54.87176 | 14896 ft | 384 kts | 288° |
| 2026-04-21 20:10 | 25.36672 | 54.84363 | 15811 ft | 389 kts | 287° |
| 2026-04-21 20:10 | 25.37508 | 54.81520 | 16979 ft | 390 kts | 286° |
| 2026-04-21 20:10 | 25.38331 | 54.78651 | 18116 ft | 393 kts | 286° |
| 2026-04-21 20:11 | 25.39156 | 54.75754 | 18980 ft | 398 kts | 286° |
| 2026-04-21 20:11 | 25.39992 | 54.72821 | 19780 ft | 404 kts | 286° |
| 2026-04-21 20:11 | 25.40845 | 54.69844 | 20565 ft | 409 kts | 286° |
| 2026-04-21 20:11 | 25.41718 | 54.66827 | 21349 ft | 414 kts | 286° |
| 2026-04-21 20:12 | 25.42602 | 54.63772 | 22121 ft | 419 kts | 286° |
| 2026-04-21 20:12 | 25.43495 | 54.60686 | 22840 ft | 423 kts | 286° |
| 2026-04-21 20:12 | 25.44405 | 54.57576 | 23493 ft | 428 kts | 287° |
| 2026-04-21 20:12 | 25.45334 | 54.54422 | 24054 ft | 432 kts | 287° |
| 2026-04-21 20:13 | 25.46270 | 54.51249 | 24630 ft | 435 kts | 287° |
| 2026-04-21 20:13 | 25.47211 | 54.48052 | 25190 ft | 438 kts | 287° |
| 2026-04-21 20:13 | 25.48158 | 54.44830 | 25723 ft | 442 kts | 287° |
| 2026-04-21 20:13 | 25.49109 | 54.41586 | 26233 ft | 445 kts | 287° |
| 2026-04-21 20:14 | 25.50066 | 54.38318 | 26718 ft | 448 kts | 287° |
| 2026-04-21 20:14 | 25.51030 | 54.35022 | 27197 ft | 451 kts | 287° |
| 2026-04-21 20:14 | 25.51997 | 54.31710 | 27645 ft | 454 kts | 287° |
| 2026-04-21 20:14 | 25.52970 | 54.28377 | 28081 ft | 456 kts | 287° |
| 2026-04-21 20:15 | 25.53948 | 54.25026 | 28473 ft | 459 kts | 287° |
| 2026-04-21 20:15 | 25.54936 | 54.21657 | 28862 ft | 461 kts | 287° |
| 2026-04-21 20:15 | 25.55939 | 54.18268 | 29211 ft | 464 kts | 287° |
| 2026-04-21 20:15 | 25.56949 | 54.14862 | 29554 ft | 466 kts | 287° |
| 2026-04-21 20:16 | 25.57960 | 54.11446 | 29877 ft | 468 kts | 287° |
| 2026-04-21 20:16 | 25.58970 | 54.08026 | 30239 ft | 467 kts | 287° |
| 2026-04-21 20:16 | 25.59956 | 54.04654 | 30681 ft | 464 kts | 287° |
| 2026-04-21 20:16 | 25.60936 | 54.01221 | 31176 ft | 460 kts | 286° |
| 2026-04-21 20:17 | 25.61887 | 53.97850 | 31630 ft | 456 kts | 286° |
| 2026-04-21 20:17 | 25.62831 | 53.94500 | 32034 ft | 454 kts | 286° |
| 2026-04-21 20:17 | 25.63760 | 53.91207 | 32396 ft | 453 kts | 286° |
| 2026-04-21 20:17 | 25.64698 | 53.87884 | 32755 ft | 451 kts | 287° |
| 2026-04-21 20:18 | 25.65332 | 53.85642 | 32998 ft | 450 kts | 287° |
| 2026-04-21 20:18 | 25.66566 | 53.81275 | 33490 ft | 447 kts | 287° |
| 2026-04-21 20:18 | 25.67495 | 53.77987 | 33759 ft | 448 kts | 287° |
| 2026-04-21 20:19 | 25.69359 | 53.71374 | 33808 ft | 448 kts | 286° |
| 2026-04-21 20:19 | 25.71205 | 53.64807 | 33812 ft | 444 kts | 286° |
| 2026-04-21 20:20 | 25.73036 | 53.58275 | 33819 ft | 443 kts | 286° |
| 2026-04-21 20:20 | 25.74862 | 53.51756 | 33822 ft | 443 kts | 286° |
| 2026-04-21 20:21 | 25.76699 | 53.45231 | 33820 ft | 443 kts | 286° |
| 2026-04-21 20:21 | 25.78548 | 53.38695 | 33824 ft | 444 kts | 286° |
| 2026-04-21 20:22 | 25.80392 | 53.32157 | 33826 ft | 444 kts | 286° |
| 2026-04-21 20:22 | 25.83153 | 53.22335 | 33824 ft | 444 kts | 286° |
| 2026-04-21 20:23 | 25.85245 | 53.15884 | 33829 ft | 445 kts | 292° |
| 2026-04-21 20:23 | 25.87822 | 53.09636 | 33830 ft | 445 kts | 292° |
| 2026-04-21 20:24 | 25.90382 | 53.03390 | 33832 ft | 444 kts | 292° |
| 2026-04-21 20:24 | 25.92918 | 52.97143 | 33830 ft | 443 kts | 292° |
| 2026-04-21 20:25 | 25.93754 | 52.95078 | 33832 ft | 443 kts | 292° |